createdAt,value
2018-07-20T00:00:24.673Z,0.00
2018-07-20T00:01:24.600Z,0.00
2018-07-20T00:02:24.587Z,0.00
2018-07-20T00:03:24.571Z,0.00
2018-07-20T00:04:24.555Z,0.00
2018-07-20T00:05:24.542Z,0.00
2018-07-20T00:06:24.527Z,0.00
2018-07-20T00:07:24.512Z,0.00
2018-07-20T00:08:24.496Z,0.00
2018-07-20T00:09:24.482Z,0.00
2018-07-20T00:10:24.468Z,0.00
2018-07-20T00:11:24.453Z,0.00
2018-07-20T00:12:24.437Z,0.00
2018-07-20T00:13:24.421Z,0.00
2018-07-20T00:14:24.407Z,0.00
2018-07-20T00:15:24.393Z,0.00
2018-07-20T00:16:24.376Z,0.00
2018-07-20T00:17:24.363Z,0.00
2018-07-20T00:18:24.347Z,0.00
2018-07-20T00:19:24.334Z,0.00
2018-07-20T00:20:24.319Z,0.00
2018-07-20T00:21:24.303Z,0.00
2018-07-20T00:22:24.287Z,0.00
2018-07-20T00:23:24.273Z,0.00
2018-07-20T00:24:24.257Z,0.00
2018-07-20T00:25:24.242Z,0.00
2018-07-20T00:26:24.230Z,0.00
2018-07-20T00:27:24.214Z,0.00
2018-07-20T00:28:24.198Z,0.00
2018-07-20T00:29:24.185Z,0.00
2018-07-20T00:30:24.201Z,0.00
2018-07-20T00:31:24.154Z,0.00
2018-07-20T00:32:24.139Z,0.00
2018-07-20T00:33:24.122Z,0.00
2018-07-20T00:34:24.109Z,0.00
2018-07-20T00:35:24.096Z,0.00
2018-07-20T00:36:24.078Z,0.00
2018-07-20T00:37:24.062Z,0.00
2018-07-20T00:38:24.049Z,0.00
2018-07-20T00:39:24.034Z,0.00
2018-07-20T00:40:24.017Z,0.00
2018-07-20T00:41:24.005Z,0.00
2018-07-20T00:42:23.991Z,0.00
2018-07-20T00:43:23.973Z,0.00
2018-07-20T00:44:23.957Z,0.00
2018-07-20T00:45:23.943Z,0.00
2018-07-20T00:46:23.928Z,0.00
2018-07-20T00:47:23.913Z,0.00
2018-07-20T00:48:23.897Z,0.00
2018-07-20T00:49:23.882Z,0.00
2018-07-20T00:50:24.618Z,0.00
2018-07-20T00:51:23.874Z,0.00
2018-07-20T00:52:23.836Z,0.00
2018-07-20T00:53:23.822Z,0.00
2018-07-20T00:54:23.806Z,0.00
2018-07-20T00:55:23.791Z,0.00
2018-07-20T00:56:23.775Z,0.00
2018-07-20T00:57:23.761Z,0.00
2018-07-20T00:58:23.745Z,0.00
2018-07-20T00:59:23.732Z,0.00
2018-07-20T01:00:23.714Z,0.00
2018-07-20T01:01:23.698Z,0.00
2018-07-20T01:02:23.686Z,0.00
2018-07-20T01:03:23.669Z,0.00
2018-07-20T01:04:23.653Z,0.00
2018-07-20T01:05:23.667Z,0.00
2018-07-20T01:06:23.624Z,0.00
2018-07-20T01:07:23.608Z,0.00
2018-07-20T01:08:23.596Z,0.00
2018-07-20T01:09:23.576Z,0.00
2018-07-20T01:10:23.562Z,0.00
2018-07-20T01:11:23.548Z,0.00
2018-07-20T01:12:23.530Z,0.00
2018-07-20T01:13:23.515Z,0.00
2018-07-20T01:14:23.500Z,0.00
2018-07-20T01:15:23.490Z,0.00
2018-07-20T01:16:23.472Z,0.00
2018-07-20T01:17:23.454Z,0.00
2018-07-20T01:18:23.439Z,0.00
2018-07-20T01:19:23.425Z,0.00
2018-07-20T01:20:23.407Z,0.00
2018-07-20T01:21:23.394Z,0.00
2018-07-20T01:22:23.379Z,0.00
2018-07-20T01:23:23.362Z,0.00
2018-07-20T01:24:23.346Z,0.00
2018-07-20T01:25:23.331Z,0.00
2018-07-20T01:26:24.066Z,0.00
2018-07-20T01:27:23.300Z,0.00
2018-07-20T01:28:23.284Z,0.00
2018-07-20T01:29:23.269Z,0.00
2018-07-20T01:30:23.254Z,0.00
2018-07-20T01:31:23.243Z,0.00
2018-07-20T01:32:23.223Z,0.00
2018-07-20T01:33:23.208Z,0.00
2018-07-20T01:34:23.193Z,0.00
2018-07-20T01:35:23.178Z,0.00
2018-07-20T01:36:23.162Z,0.00
2018-07-20T01:37:23.147Z,0.00
2018-07-20T01:38:23.130Z,0.00
2018-07-20T01:39:23.116Z,0.00
2018-07-20T01:40:23.099Z,0.00
2018-07-20T01:41:23.084Z,0.00
2018-07-20T01:42:23.070Z,0.00
2018-07-20T01:43:23.054Z,0.00
2018-07-20T01:44:23.038Z,0.00
2018-07-20T01:45:23.023Z,0.00
2018-07-20T01:46:23.008Z,0.00
2018-07-20T01:47:25.244Z,0.00
2018-07-20T01:48:22.976Z,0.00
2018-07-20T01:49:22.961Z,0.00
2018-07-20T01:50:22.944Z,0.00
2018-07-20T01:51:22.930Z,0.00
2018-07-20T01:52:22.918Z,0.00
2018-07-20T01:53:22.899Z,0.00
2018-07-20T01:54:22.884Z,0.00
2018-07-20T01:55:22.868Z,0.00
2018-07-20T01:56:22.851Z,0.00
2018-07-20T01:57:22.836Z,0.00
2018-07-20T01:58:22.822Z,0.00
2018-07-20T01:59:22.806Z,0.00
2018-07-20T02:00:22.789Z,0.00
2018-07-20T02:01:22.774Z,0.00
2018-07-20T02:02:22.759Z,0.00
2018-07-20T02:03:22.744Z,0.00
2018-07-20T02:04:22.727Z,0.00
2018-07-20T02:05:22.712Z,0.00
2018-07-20T02:06:22.697Z,0.00
2018-07-20T02:07:22.680Z,0.00
2018-07-20T02:08:22.663Z,0.00
2018-07-20T02:09:22.649Z,0.00
2018-07-20T02:10:22.645Z,0.00
2018-07-20T02:11:22.617Z,0.00
2018-07-20T02:12:22.602Z,0.00
2018-07-20T02:13:22.586Z,0.00
2018-07-20T02:14:22.572Z,0.00
2018-07-20T02:15:22.554Z,0.00
2018-07-20T02:16:22.539Z,0.00
2018-07-20T02:17:22.523Z,0.00
2018-07-20T02:18:22.507Z,0.00
2018-07-20T02:19:22.491Z,0.00
2018-07-20T02:20:22.475Z,0.00
2018-07-20T02:21:22.464Z,0.00
2018-07-20T02:22:22.446Z,0.00
2018-07-20T02:23:22.428Z,0.00
2018-07-20T02:24:22.413Z,0.00
2018-07-20T02:25:22.397Z,0.00
2018-07-20T02:26:22.382Z,0.00
2018-07-20T02:27:22.371Z,0.00
2018-07-20T02:28:22.349Z,0.00
2018-07-20T02:29:22.336Z,0.00
2018-07-20T02:30:22.320Z,0.00
2018-07-20T02:31:22.303Z,0.00
2018-07-20T02:32:22.284Z,0.00
2018-07-20T02:33:22.269Z,0.00
2018-07-20T02:34:22.253Z,0.00
2018-07-20T02:35:22.239Z,0.00
2018-07-20T02:36:22.220Z,0.00
2018-07-20T02:37:22.209Z,0.00
2018-07-20T02:38:22.188Z,0.00
2018-07-20T02:39:22.177Z,0.00
2018-07-20T02:40:22.157Z,0.00
2018-07-20T02:41:22.140Z,0.00
2018-07-20T02:42:22.125Z,0.00
2018-07-20T02:43:22.109Z,0.00
2018-07-20T02:44:22.092Z,0.00
2018-07-20T02:45:22.076Z,0.00
2018-07-20T02:46:22.059Z,0.00
2018-07-20T02:47:22.043Z,0.00
2018-07-20T02:48:22.026Z,0.00
2018-07-20T02:49:22.010Z,0.00
2018-07-20T02:50:21.994Z,0.00
2018-07-20T02:51:23.480Z,0.00
2018-07-20T02:52:21.964Z,0.00
2018-07-20T02:53:21.945Z,0.00
2018-07-20T02:54:21.928Z,0.00
2018-07-20T02:55:21.913Z,0.00
2018-07-20T02:56:21.894Z,0.00
2018-07-20T02:57:21.880Z,0.00
2018-07-20T02:58:21.862Z,0.00
2018-07-20T02:59:21.846Z,0.00
2018-07-20T03:00:21.829Z,0.00
2018-07-20T03:01:21.811Z,0.00
2018-07-20T03:02:21.796Z,0.00
2018-07-20T03:03:21.779Z,0.00
2018-07-20T03:04:21.763Z,0.00
2018-07-20T03:05:21.746Z,0.00
2018-07-20T03:06:21.728Z,0.00
2018-07-20T03:07:21.714Z,0.00
2018-07-20T03:08:21.696Z,0.00
2018-07-20T03:09:21.679Z,0.00
2018-07-20T03:10:21.662Z,0.00
2018-07-20T03:11:21.652Z,0.00
2018-07-20T03:12:21.629Z,0.00
2018-07-20T03:13:21.613Z,0.00
2018-07-20T03:14:21.596Z,0.00
2018-07-20T03:15:21.583Z,0.00
2018-07-20T03:16:21.562Z,0.00
2018-07-20T03:17:21.547Z,0.00
2018-07-20T03:18:21.528Z,0.00
2018-07-20T03:19:21.512Z,4.00
2018-07-20T03:20:21.493Z,4.00
2018-07-20T03:21:21.477Z,4.00
2018-07-20T03:22:21.465Z,0.00
2018-07-20T03:23:21.445Z,0.00
2018-07-20T03:24:21.426Z,4.00
2018-07-20T03:25:21.415Z,4.00
2018-07-20T03:26:21.392Z,4.00
2018-07-20T03:27:21.375Z,4.00
2018-07-20T03:28:21.358Z,4.00
2018-07-20T03:29:21.340Z,8.00
2018-07-20T03:30:21.325Z,4.00
2018-07-20T03:31:21.308Z,8.00
2018-07-20T03:32:21.291Z,4.00
2018-07-20T03:33:21.273Z,8.00
2018-07-20T03:34:21.262Z,8.00
2018-07-20T03:35:21.241Z,8.00
2018-07-20T03:36:21.223Z,12.00
2018-07-20T03:37:21.207Z,12.00
2018-07-20T03:38:21.189Z,12.00
2018-07-20T03:39:21.173Z,16.00
2018-07-20T03:40:21.154Z,16.00
2018-07-20T03:41:21.137Z,20.00
2018-07-20T03:42:21.123Z,20.00
2018-07-20T03:43:21.105Z,24.00
2018-07-20T03:44:21.086Z,24.00
2018-07-20T03:45:21.070Z,24.00
2018-07-20T03:46:21.054Z,28.00
2018-07-20T03:47:21.036Z,32.00
2018-07-20T03:48:21.019Z,36.00
2018-07-20T03:49:21.002Z,40.00
2018-07-20T03:50:20.986Z,40.00
2018-07-20T03:51:20.969Z,44.00
2018-07-20T03:52:20.954Z,48.00
2018-07-20T03:53:20.935Z,52.00
2018-07-20T03:54:20.918Z,56.00
2018-07-20T03:55:20.900Z,60.00
2018-07-20T03:56:20.886Z,64.00
2018-07-20T03:57:22.369Z,68.00
2018-07-20T03:58:20.849Z,72.00
2018-07-20T03:59:20.834Z,76.00
2018-07-20T04:00:20.815Z,84.00
2018-07-20T04:01:20.801Z,88.00
2018-07-20T04:02:20.799Z,92.00
2018-07-20T04:03:20.765Z,96.00
2018-07-20T04:04:20.747Z,100.00
2018-07-20T04:05:20.731Z,104.00
2018-07-20T04:06:20.714Z,108.00
2018-07-20T04:07:20.698Z,112.00
2018-07-20T04:08:20.680Z,120.00
2018-07-20T04:09:20.664Z,120.00
2018-07-20T04:10:20.725Z,124.00
2018-07-20T04:11:20.630Z,124.00
2018-07-20T04:12:20.613Z,128.00
2018-07-20T04:13:20.595Z,132.00
2018-07-20T04:14:20.579Z,140.00
2018-07-20T04:15:20.566Z,140.00
2018-07-20T04:16:20.544Z,144.00
2018-07-20T04:17:20.527Z,148.00
2018-07-20T04:18:20.511Z,156.00
2018-07-20T04:19:20.494Z,160.00
2018-07-20T04:20:20.476Z,168.00
2018-07-20T04:21:20.459Z,176.00
2018-07-20T04:22:20.442Z,180.00
2018-07-20T04:23:20.429Z,192.00
2018-07-20T04:24:21.158Z,200.00
2018-07-20T04:25:20.391Z,208.00
2018-07-20T04:26:20.375Z,220.00
2018-07-20T04:27:20.357Z,236.00
2018-07-20T04:28:20.340Z,244.00
2018-07-20T04:29:20.327Z,256.00
2018-07-20T04:30:20.306Z,268.00
2018-07-20T04:31:20.290Z,280.00
2018-07-20T04:32:20.272Z,292.00
2018-07-20T04:33:20.255Z,300.00
2018-07-20T04:34:20.239Z,312.00
2018-07-20T04:35:20.222Z,320.00
2018-07-20T04:36:20.299Z,332.00
2018-07-20T04:37:20.187Z,340.00
2018-07-20T04:38:20.169Z,348.00
2018-07-20T04:39:20.155Z,356.00
2018-07-20T04:40:20.887Z,364.00
2018-07-20T04:41:20.119Z,372.00
2018-07-20T04:42:20.103Z,380.00
2018-07-20T04:43:20.088Z,388.00
2018-07-20T04:44:20.070Z,396.00
2018-07-20T04:45:20.052Z,404.00
2018-07-20T04:46:20.035Z,412.00
2018-07-20T04:47:20.018Z,420.00
2018-07-20T04:48:20.000Z,428.00
2018-07-20T04:49:20.003Z,436.00
2018-07-20T04:50:19.967Z,444.00
2018-07-20T04:51:19.950Z,452.00
2018-07-20T04:52:19.936Z,460.00
2018-07-20T04:53:19.917Z,472.00
2018-07-20T04:54:19.900Z,480.00
2018-07-20T04:55:19.886Z,492.00
2018-07-20T04:56:19.870Z,500.00
2018-07-20T04:57:19.850Z,504.00
2018-07-20T04:58:19.835Z,512.00
2018-07-20T04:59:19.817Z,520.00
2018-07-20T05:00:19.850Z,528.00
2018-07-20T05:01:19.784Z,540.00
2018-07-20T05:02:19.768Z,548.00
2018-07-20T05:03:19.750Z,560.00
2018-07-20T05:04:19.733Z,568.00
2018-07-20T05:05:19.718Z,580.00
2018-07-20T05:06:19.702Z,592.00
2018-07-20T05:07:20.435Z,600.00
2018-07-20T05:08:19.667Z,608.00
2018-07-20T05:09:19.652Z,620.00
2018-07-20T05:10:19.635Z,636.00
2018-07-20T05:11:19.646Z,644.00
2018-07-20T05:12:19.601Z,656.00
2018-07-20T05:13:19.585Z,672.00
2018-07-20T05:14:19.568Z,680.00
2018-07-20T05:15:19.552Z,700.00
2018-07-20T05:16:19.535Z,708.00
2018-07-20T05:17:19.520Z,724.00
2018-07-20T05:18:20.255Z,732.00
2018-07-20T05:19:19.487Z,744.00
2018-07-20T05:20:19.471Z,756.00
2018-07-20T05:21:19.463Z,764.00
2018-07-20T05:22:19.438Z,780.00
2018-07-20T05:23:19.423Z,788.00
2018-07-20T05:24:19.408Z,796.00
2018-07-20T05:25:19.390Z,804.00
2018-07-20T05:26:19.372Z,808.00
2018-07-20T05:27:19.357Z,808.00
2018-07-20T05:28:19.340Z,812.00
2018-07-20T05:29:19.324Z,816.00
2018-07-20T05:30:19.308Z,816.00
2018-07-20T05:31:19.295Z,816.00
2018-07-20T05:32:19.275Z,820.00
2018-07-20T05:33:19.260Z,828.00
2018-07-20T05:34:19.245Z,828.00
2018-07-20T05:35:19.229Z,828.00
2018-07-20T05:36:19.212Z,824.00
2018-07-20T05:37:19.199Z,828.00
2018-07-20T05:38:19.182Z,828.00
2018-07-20T05:39:19.166Z,832.00
2018-07-20T05:40:19.149Z,820.00
2018-07-20T05:41:19.133Z,820.00
2018-07-20T05:42:19.116Z,820.00
2018-07-20T05:43:19.101Z,820.00
2018-07-20T05:44:19.085Z,828.00
2018-07-20T05:45:19.070Z,832.00
2018-07-20T05:46:19.053Z,828.00
2018-07-20T05:47:19.043Z,828.00
2018-07-20T05:48:19.028Z,828.00
2018-07-20T05:49:19.008Z,832.00
2018-07-20T05:50:18.990Z,836.00
2018-07-20T05:51:18.976Z,840.00
2018-07-20T05:52:18.960Z,840.00
2018-07-20T05:53:18.964Z,844.00
2018-07-20T05:54:18.929Z,844.00
2018-07-20T05:55:18.914Z,848.00
2018-07-20T05:56:18.900Z,844.00
2018-07-20T05:57:18.881Z,840.00
2018-07-20T05:58:18.866Z,848.00
2018-07-20T05:59:18.851Z,828.00
2018-07-20T06:00:18.834Z,828.00
2018-07-20T06:01:18.820Z,820.00
2018-07-20T06:02:18.809Z,824.00
2018-07-20T06:03:18.788Z,824.00
2018-07-20T06:04:18.772Z,828.00
2018-07-20T06:05:18.758Z,828.00
2018-07-20T06:06:18.742Z,836.00
2018-07-20T06:07:18.726Z,844.00
2018-07-20T06:08:18.710Z,844.00
2018-07-20T06:09:18.697Z,848.00
2018-07-20T06:10:18.681Z,852.00
2018-07-20T06:11:18.665Z,852.00
2018-07-20T06:12:18.652Z,860.00
2018-07-20T06:13:18.634Z,864.00
2018-07-20T06:14:18.624Z,872.00
2018-07-20T06:15:18.604Z,880.00
2018-07-20T06:16:18.588Z,888.00
2018-07-20T06:17:18.572Z,896.00
2018-07-20T06:18:18.558Z,908.00
2018-07-20T06:19:18.542Z,916.00
2018-07-20T06:20:18.525Z,920.00
2018-07-20T06:21:18.511Z,920.00
2018-07-20T06:22:18.496Z,924.00
2018-07-20T06:23:18.482Z,924.00
2018-07-20T06:24:18.466Z,924.00
2018-07-20T06:25:18.450Z,924.00
2018-07-20T06:26:18.436Z,924.00
2018-07-20T06:27:18.420Z,932.00
2018-07-20T06:28:18.405Z,940.00
2018-07-20T06:29:18.389Z,944.00
2018-07-20T06:30:18.375Z,956.00
2018-07-20T06:31:18.359Z,964.00
2018-07-20T06:32:18.343Z,972.00
2018-07-20T06:33:18.328Z,980.00
2018-07-20T06:34:18.313Z,984.00
2018-07-20T06:35:18.299Z,984.00
2018-07-20T06:36:18.283Z,992.00
2018-07-20T06:37:18.271Z,992.00
2018-07-20T06:38:18.253Z,996.00
2018-07-20T06:39:18.237Z,1000.00
2018-07-20T06:40:18.224Z,1004.00
2018-07-20T06:41:18.210Z,1012.00
2018-07-20T06:42:18.195Z,1016.00
2018-07-20T06:43:18.177Z,1012.00
2018-07-20T06:44:18.161Z,1012.00
2018-07-20T06:45:18.146Z,1016.00
2018-07-20T06:46:18.132Z,1020.00
2018-07-20T06:47:18.122Z,1032.00
2018-07-20T06:48:18.102Z,1052.00
2018-07-20T06:49:18.087Z,1052.00
2018-07-20T06:50:18.071Z,1080.00
2018-07-20T06:51:18.056Z,1088.00
2018-07-20T06:52:18.042Z,1076.00
2018-07-20T06:53:18.026Z,1088.00
2018-07-20T06:54:18.012Z,1096.00
2018-07-20T06:55:17.996Z,1108.00
2018-07-20T06:56:17.980Z,1116.00
2018-07-20T06:57:17.968Z,1124.00
2018-07-20T06:58:17.953Z,1148.00
2018-07-20T06:59:17.936Z,1156.00
2018-07-20T07:00:19.422Z,1176.00
2018-07-20T07:01:17.906Z,1196.00
2018-07-20T07:02:17.893Z,1224.00
2018-07-20T07:03:17.876Z,1256.00
2018-07-20T07:04:17.862Z,1228.00
2018-07-20T07:05:17.847Z,1212.00
2018-07-20T07:06:19.337Z,1184.00
2018-07-20T07:07:17.818Z,1152.00
2018-07-20T07:08:17.801Z,1144.00
2018-07-20T07:09:17.810Z,1112.00
2018-07-20T07:10:17.777Z,1100.00
2018-07-20T07:11:17.757Z,1092.00
2018-07-20T07:12:17.743Z,1088.00
2018-07-20T07:13:17.729Z,1092.00
2018-07-20T07:14:17.714Z,1096.00
2018-07-20T07:15:17.763Z,1104.00
2018-07-20T07:16:17.683Z,1108.00
2018-07-20T07:17:17.669Z,1116.00
2018-07-20T07:18:17.653Z,1124.00
2018-07-20T07:19:17.641Z,1136.00
2018-07-20T07:20:17.625Z,1136.00
2018-07-20T07:21:17.614Z,1156.00
2018-07-20T07:22:17.648Z,1192.00
2018-07-20T07:23:18.332Z,1188.00
2018-07-20T07:24:17.566Z,1220.00
2018-07-20T07:25:17.552Z,1276.00
2018-07-20T07:26:17.537Z,1292.00
2018-07-20T07:27:17.521Z,1316.00
2018-07-20T07:28:17.507Z,1312.00
2018-07-20T07:29:17.532Z,1288.00
2018-07-20T07:30:17.479Z,1200.00
2018-07-20T07:31:17.465Z,1236.00
2018-07-20T07:32:17.450Z,1212.00
2018-07-20T07:33:17.435Z,1068.00
2018-07-20T07:34:22.676Z,1144.00
2018-07-20T07:35:17.406Z,1140.00
2018-07-20T07:36:17.395Z,1144.00
2018-07-20T07:37:17.376Z,1124.00
2018-07-20T07:38:17.362Z,1116.00
2018-07-20T07:39:17.348Z,1112.00
2018-07-20T07:40:18.085Z,1116.00
2018-07-20T07:41:17.321Z,1104.00
2018-07-20T07:42:17.348Z,1108.00
2018-07-20T07:43:17.293Z,1108.00
2018-07-20T07:44:17.283Z,1108.00
2018-07-20T07:45:17.264Z,1112.00
2018-07-20T07:46:17.250Z,1124.00
2018-07-20T07:47:17.235Z,1128.00
2018-07-20T07:48:17.226Z,1128.00
2018-07-20T07:49:17.257Z,1132.00
2018-07-20T07:50:17.191Z,1136.00
2018-07-20T07:51:17.179Z,1136.00
2018-07-20T07:52:17.164Z,1132.00
2018-07-20T07:53:17.148Z,1140.00
2018-07-20T07:54:17.134Z,1140.00
2018-07-20T07:55:17.120Z,1136.00
2018-07-20T07:56:17.107Z,1140.00
2018-07-20T07:57:17.092Z,1136.00
2018-07-20T07:58:17.079Z,1128.00
2018-07-20T07:59:17.068Z,1132.00
2018-07-20T08:00:17.049Z,1128.00
2018-07-20T08:01:17.785Z,1128.00
2018-07-20T08:02:17.021Z,1136.00
2018-07-20T08:03:17.018Z,1132.00
2018-07-20T08:04:16.994Z,1140.00
2018-07-20T08:05:16.980Z,1136.00
2018-07-20T08:06:16.967Z,1140.00
2018-07-20T08:07:16.951Z,1144.00
2018-07-20T08:08:16.936Z,1136.00
2018-07-20T08:09:16.923Z,1144.00
2018-07-20T08:10:16.919Z,1148.00
2018-07-20T08:11:16.895Z,1152.00
2018-07-20T08:12:16.883Z,1156.00
2018-07-20T08:13:16.868Z,1160.00
2018-07-20T08:14:16.858Z,1168.00
2018-07-20T08:15:16.842Z,1172.00
2018-07-20T08:16:16.826Z,1180.00
2018-07-20T08:17:16.812Z,1184.00
2018-07-20T08:18:16.798Z,1184.00
2018-07-20T08:19:16.786Z,1184.00
2018-07-20T08:20:16.770Z,1188.00
2018-07-20T08:21:16.756Z,1188.00
2018-07-20T08:22:17.494Z,1196.00
2018-07-20T08:23:16.733Z,1200.00
2018-07-20T08:24:16.715Z,1204.00
2018-07-20T08:25:16.702Z,1200.00
2018-07-20T08:26:16.689Z,1208.00
2018-07-20T08:27:16.676Z,1196.00
2018-07-20T08:28:16.661Z,1200.00
2018-07-20T08:29:16.648Z,1204.00
2018-07-20T08:30:16.636Z,1200.00
2018-07-20T08:31:16.622Z,1200.00
2018-07-20T08:32:16.610Z,1204.00
2018-07-20T08:33:17.347Z,1204.00
2018-07-20T08:34:16.581Z,1208.00
2018-07-20T08:35:16.569Z,1208.00
2018-07-20T08:36:16.555Z,1208.00
2018-07-20T08:37:16.540Z,1212.00
2018-07-20T08:38:16.526Z,1212.00
2018-07-20T08:39:16.514Z,1212.00
2018-07-20T08:40:16.499Z,1212.00
2018-07-20T08:41:16.618Z,1212.00
2018-07-20T08:42:16.472Z,1212.00
2018-07-20T08:43:16.458Z,1208.00
2018-07-20T08:44:16.447Z,1212.00
2018-07-20T08:45:16.442Z,1216.00
2018-07-20T08:46:16.419Z,1216.00
2018-07-20T08:47:16.405Z,1220.00
2018-07-20T08:48:16.391Z,1216.00
2018-07-20T08:49:16.381Z,1216.00
2018-07-20T08:50:16.365Z,1212.00
2018-07-20T08:51:16.351Z,1220.00
2018-07-20T08:52:16.339Z,1212.00
2018-07-20T08:53:16.325Z,1228.00
2018-07-20T08:54:16.313Z,1212.00
2018-07-20T08:55:16.301Z,1212.00
2018-07-20T08:56:16.286Z,1212.00
2018-07-20T08:57:16.270Z,1216.00
2018-07-20T08:58:16.298Z,1236.00
2018-07-20T08:59:16.245Z,1232.00
2018-07-20T09:00:16.236Z,1236.00
2018-07-20T09:01:16.217Z,1244.00
2018-07-20T09:02:16.207Z,1244.00
2018-07-20T09:03:16.192Z,1248.00
2018-07-20T09:04:16.179Z,1248.00
2018-07-20T09:05:16.915Z,1268.00
2018-07-20T09:06:16.153Z,1260.00
2018-07-20T09:07:16.139Z,1136.00
2018-07-20T09:08:16.125Z,1052.00
2018-07-20T09:09:16.112Z,1060.00
2018-07-20T09:10:16.100Z,1112.00
2018-07-20T09:11:16.086Z,1212.00
2018-07-20T09:12:16.074Z,1140.00
2018-07-20T09:13:16.060Z,1212.00
2018-07-20T09:14:16.048Z,1284.00
2018-07-20T09:15:16.035Z,1284.00
2018-07-20T09:16:18.273Z,1280.00
2018-07-20T09:17:16.007Z,1272.00
2018-07-20T09:18:15.994Z,1268.00
2018-07-20T09:19:15.981Z,1260.00
2018-07-20T09:20:15.970Z,1260.00
2018-07-20T09:21:15.957Z,1264.00
2018-07-20T09:22:16.693Z,1260.00
2018-07-20T09:23:15.929Z,1264.00
2018-07-20T09:24:15.914Z,1264.00
2018-07-20T09:25:15.902Z,1272.00
2018-07-20T09:26:15.893Z,1272.00
2018-07-20T09:27:15.877Z,1268.00
2018-07-20T09:28:15.874Z,1264.00
2018-07-20T09:29:15.851Z,1260.00
2018-07-20T09:30:15.838Z,1264.00
2018-07-20T09:31:15.828Z,1268.00
2018-07-20T09:32:15.811Z,1272.00
2018-07-20T09:33:17.299Z,1280.00
2018-07-20T09:34:15.784Z,1280.00
2018-07-20T09:35:15.771Z,1280.00
2018-07-20T09:36:15.759Z,1284.00
2018-07-20T09:37:15.745Z,1288.00
2018-07-20T09:38:15.734Z,1292.00
2018-07-20T09:39:16.471Z,1288.00
2018-07-20T09:40:15.708Z,1300.00
2018-07-20T09:41:15.694Z,1304.00
2018-07-20T09:42:15.683Z,1308.00
2018-07-20T09:43:15.670Z,1320.00
2018-07-20T09:44:15.671Z,1320.00
2018-07-20T09:45:15.645Z,1324.00
2018-07-20T09:46:15.632Z,1328.00
2018-07-20T09:47:15.620Z,1324.00
2018-07-20T09:48:15.606Z,1332.00
2018-07-20T09:49:15.593Z,1336.00
2018-07-20T09:50:16.332Z,1332.00
2018-07-20T09:51:15.570Z,1332.00
2018-07-20T09:52:15.556Z,1328.00
2018-07-20T09:53:15.545Z,1324.00
2018-07-20T09:54:15.532Z,1320.00
2018-07-20T09:55:15.520Z,1320.00
2018-07-20T09:56:15.506Z,1324.00
2018-07-20T09:57:15.494Z,1324.00
2018-07-20T09:58:15.485Z,1328.00
2018-07-20T09:59:15.471Z,1324.00
2018-07-20T10:00:15.456Z,1324.00
2018-07-20T10:01:16.195Z,1316.00
2018-07-20T10:02:15.432Z,1312.00
2018-07-20T10:03:15.421Z,1316.00
2018-07-20T10:04:15.409Z,1332.00
2018-07-20T10:05:15.397Z,1312.00
2018-07-20T10:06:15.385Z,1316.00
2018-07-20T10:07:15.377Z,1316.00
2018-07-20T10:08:15.360Z,1324.00
2018-07-20T10:09:15.348Z,1332.00
2018-07-20T10:10:15.336Z,1336.00
2018-07-20T10:11:15.323Z,1344.00
2018-07-20T10:12:15.315Z,1348.00
2018-07-20T10:13:15.298Z,1352.00
2018-07-20T10:14:15.287Z,1356.00
2018-07-20T10:15:15.274Z,1360.00
2018-07-20T10:16:15.263Z,1360.00
2018-07-20T10:17:15.252Z,1360.00
2018-07-20T10:18:15.239Z,1352.00
2018-07-20T10:19:15.227Z,1344.00
2018-07-20T10:20:15.218Z,1344.00
2018-07-20T10:21:15.202Z,1336.00
2018-07-20T10:22:15.191Z,1332.00
2018-07-20T10:23:15.178Z,1320.00
2018-07-20T10:24:15.165Z,1312.00
2018-07-20T10:25:15.153Z,1316.00
2018-07-20T10:26:15.142Z,1316.00
2018-07-20T10:27:15.134Z,1316.00
2018-07-20T10:28:15.118Z,1332.00
2018-07-20T10:29:15.107Z,1316.00
2018-07-20T10:30:15.094Z,1316.00
2018-07-20T10:31:15.082Z,1324.00
2018-07-20T10:32:15.069Z,1332.00
2018-07-20T10:33:15.058Z,1332.00
2018-07-20T10:34:15.046Z,1336.00
2018-07-20T10:35:15.037Z,1336.00
2018-07-20T10:36:15.021Z,1336.00
2018-07-20T10:37:15.010Z,1332.00
2018-07-20T10:38:14.997Z,1328.00
2018-07-20T10:39:14.985Z,1340.00
2018-07-20T10:40:14.973Z,1360.00
2018-07-20T10:41:14.961Z,1372.00
2018-07-20T10:42:14.950Z,1372.00
2018-07-20T10:43:14.987Z,1364.00
2018-07-20T10:44:14.925Z,1372.00
2018-07-20T10:45:14.915Z,1372.00
2018-07-20T10:46:14.902Z,1368.00
2018-07-20T10:47:14.891Z,1364.00
2018-07-20T10:48:14.879Z,1360.00
2018-07-20T10:49:14.868Z,1356.00
2018-07-20T10:50:14.856Z,1356.00
2018-07-20T10:51:14.843Z,1356.00
2018-07-20T10:52:14.832Z,1360.00
2018-07-20T10:53:14.820Z,1356.00
2018-07-20T10:54:14.809Z,1360.00
2018-07-20T10:55:14.796Z,1360.00
2018-07-20T10:56:14.784Z,1356.00
2018-07-20T10:57:14.772Z,1356.00
2018-07-20T10:58:14.761Z,1356.00
2018-07-20T10:59:14.764Z,1360.00
2018-07-20T11:00:14.737Z,1364.00
2018-07-20T11:01:14.733Z,1368.00
2018-07-20T11:02:14.716Z,1380.00
2018-07-20T11:03:14.706Z,1412.00
2018-07-20T11:04:14.691Z,1416.00
2018-07-20T11:05:14.679Z,1412.00
2018-07-20T11:06:14.669Z,1412.00
2018-07-20T11:07:14.662Z,1416.00
2018-07-20T11:08:14.649Z,1424.00
2018-07-20T11:09:14.635Z,1428.00
2018-07-20T11:10:14.623Z,1444.00
2018-07-20T11:11:14.611Z,1484.00
2018-07-20T11:12:14.600Z,1540.00
2018-07-20T11:13:14.593Z,1680.00
2018-07-20T11:14:14.580Z,1812.00
2018-07-20T11:15:14.566Z,1820.00
2018-07-20T11:16:14.553Z,1708.00
2018-07-20T11:17:14.542Z,1796.00
2018-07-20T11:18:14.531Z,1568.00
2018-07-20T11:19:14.521Z,1628.00
2018-07-20T11:20:14.535Z,1764.00
2018-07-20T11:21:14.498Z,1704.00
2018-07-20T11:22:14.486Z,1680.00
2018-07-20T11:23:14.475Z,1812.00
2018-07-20T11:24:14.463Z,1984.00
2018-07-20T11:25:14.453Z,2116.00
2018-07-20T11:26:14.444Z,1888.00
2018-07-20T11:27:14.430Z,1940.00
2018-07-20T11:28:14.420Z,1976.00
2018-07-20T11:29:14.458Z,2072.00
2018-07-20T11:30:14.398Z,2208.00
2018-07-20T11:31:14.385Z,2204.00
2018-07-20T11:32:14.375Z,2240.00
2018-07-20T11:33:14.363Z,2220.00
2018-07-20T11:34:14.353Z,2192.00
2018-07-20T11:35:14.342Z,2188.00
2018-07-20T11:36:18.085Z,2188.00
2018-07-20T11:37:14.320Z,2200.00
2018-07-20T11:38:14.310Z,2200.00
2018-07-20T11:39:14.298Z,2176.00
2018-07-20T11:40:14.286Z,2156.00
2018-07-20T11:41:14.276Z,2132.00
2018-07-20T11:42:15.767Z,2088.00
2018-07-20T11:43:14.255Z,2064.00
2018-07-20T11:44:14.247Z,2084.00
2018-07-20T11:45:14.232Z,2120.00
2018-07-20T11:46:14.223Z,2056.00
2018-07-20T11:47:14.212Z,2008.00
2018-07-20T11:48:17.203Z,1984.00
2018-07-20T11:49:14.190Z,1988.00
2018-07-20T11:50:14.178Z,2000.00
2018-07-20T11:51:14.172Z,1996.00
2018-07-20T11:52:14.157Z,1964.00
2018-07-20T11:53:14.147Z,1936.00
2018-07-20T11:54:14.136Z,1932.00
2018-07-20T11:55:14.125Z,2028.00
2018-07-20T11:56:14.113Z,2180.00
2018-07-20T11:57:14.102Z,2360.00
2018-07-20T11:58:14.092Z,2524.00
2018-07-20T11:59:14.080Z,2636.00
2018-07-20T12:00:14.069Z,2728.00
2018-07-20T12:01:14.074Z,2740.00
2018-07-20T12:02:14.047Z,2664.00
2018-07-20T12:03:14.036Z,2816.00
2018-07-20T12:04:14.025Z,3072.00
2018-07-20T12:05:14.017Z,3288.00
2018-07-20T12:06:14.005Z,3508.00
2018-07-20T12:07:13.993Z,3668.00
2018-07-20T12:08:13.983Z,3724.00
2018-07-20T12:09:13.971Z,3596.00
2018-07-20T12:10:14.712Z,3280.00
2018-07-20T12:11:13.951Z,3036.00
2018-07-20T12:12:13.941Z,3044.00
2018-07-20T12:13:13.931Z,3180.00
2018-07-20T12:14:13.921Z,3384.00
2018-07-20T12:15:13.911Z,3412.00
2018-07-20T12:16:13.901Z,3304.00
2018-07-20T12:17:13.889Z,3236.00
2018-07-20T12:18:13.880Z,3232.00
2018-07-20T12:19:13.871Z,3248.00
2018-07-20T12:20:13.859Z,3200.00
2018-07-20T12:21:13.851Z,3164.00
2018-07-20T12:22:13.840Z,3104.00
2018-07-20T12:23:13.831Z,3108.00
2018-07-20T12:24:13.822Z,3116.00
2018-07-20T12:25:13.809Z,3148.00
2018-07-20T12:26:13.800Z,3164.00
2018-07-20T12:27:13.791Z,3204.00
2018-07-20T12:28:13.832Z,3252.00
2018-07-20T12:29:13.774Z,3272.00
2018-07-20T12:30:13.761Z,3256.00
2018-07-20T12:31:13.753Z,3232.00